Tustin, Michigan
Current Conditions -  °F | °C
As of 10:35 PM on Saturday 24 Jan 2015 (Local Time) from KCAD Reporting Station
Overcast Overcast  
Wind Chill: 17°   Ceiling: 1100
Heat Index: 24°   Visibility: 10mi
Dew Point: 20°   Wind: 6mph
Humidity: 85%   Direction: 340°NNW
Pressure: 29.65"   Gusts: NA
Location:  44.1°N, 85.46°W
Report Text: KCAD 250335Z AUTO 34005KT 10SM OVC011 M04/M06 A2965 RMK AO2 T10461067
Loading
Personal Weather Stations






























Interactive Weather Map New forecast layout! Learn more

10-Day Weather Forecast

Advertisements
Track Severe Weather on mobile